(°C)
18°
18°
18°
16°
14°
13°
12°
(°C)
13°
14°
14°
13°
11°
J
J
J
J
JJI
JI
JI
(km/h)
15-21
12-21
12-22
11-20
10-20
11-21
12-21
(mm)
0
0
0
0
0
0
0
(%)
0
0
0
0
0
0
0

Podizanje Sunca

/ 25.6°
sun-icon
UV 3
06:44
18:03
Rastući mesec (149°)
17:37
03:04

METAR za 52.17°S 20.97°I (EPWA)

Vreme Uslovi Temperatura/
Tačka rose
Vetar Vidljivost Prognoza Oblaci Pritisak Promena Neobrađeno
VFR 18°C / 8°C 190º variable 140º to 230º 8kt >10km - Few Clouds 4600ft 1027 No Significant change EPWA 071200Z 19008KT 140V230 9999 FEW046 18/08 Q1027 NOSIG
VFR 17°C / 6°C 200º 9kt >10km - Few Clouds 4300ft 1028 No Significant change EPWA 071130Z 20009KT 9999 FEW043 17/06 Q1028 NOSIG
VFR 18°C / 8°C 200º variable 170º to 240º 7kt >10km - Few Clouds 4300ft 1028 No Significant change EPWA 071100Z 20007KT 170V240 9999 FEW043 18/08 Q1028 NOSIG
VFR 17°C / 7°C 200º variable 160º to 230º 8kt >10km - Few Clouds 4000ft 1029 No Significant change EPWA 071030Z 20008KT 160V230 9999 FEW040 17/07 Q1029 NOSIG
VFR 17°C / 8°C 180º variable 150º to 210º 8kt >10km - Few Clouds 3600ft 1029 No Significant change EPWA 071000Z 18008KT 150V210 9999 FEW036 17/08 Q1029 NOSIG
VFR 16°C / 8°C 170º variable 140º to 210º 8kt >10km - Few Clouds 3300ft 1029 No Significant change EPWA 070930Z 17008KT 140V210 9999 FEW033 16/08 Q1029 NOSIG
VFR 16°C / 8°C 170º variable 150º to 210º 6kt >10km - Clouds and Visibility OK 1030 No Significant change EPWA 070900Z 17006KT 150V210 CAVOK 16/08 Q1030 NOSIG
VFR 15°C / 9°C 170º variable 120º to 210º 5kt >10km - Clouds and Visibility OK 1030 No Significant change EPWA 070830Z 17005KT 120V210 CAVOK 15/09 Q1030 NOSIG
VFR 13°C / 10°C 150º 4kt >10km - Clouds and Visibility OK 1030 No Significant change EPWA 070800Z 15004KT CAVOK 13/10 Q1030 NOSIG
VFR 11°C / 11°C 140º 4kt >10km - Clouds and Visibility OK 1030 No Significant change EPWA 070730Z 14004KT CAVOK 11/11 Q1030 NOSIG
VFR 9°C / 7°C 130º 4kt >10km - Clouds and Visibility OK 1030 No Significant change EPWA 070700Z 13004KT CAVOK 09/07 Q1030 NOSIG
VFR 7°C / 7°C 140º 5kt >10km - Clouds and Visibility OK 1030 No Significant change EPWA 070630Z 14005KT CAVOK 07/07 Q1030 NOSIG
VFR 5°C / 5°C 140º 5kt >10km - Clouds and Visibility OK 1030 No Significant change EPWA 070600Z 14005KT CAVOK 05/05 Q1030 NOSIG
VFR 4°C / 4°C 140º 4kt 9000m shallow Fog Vertical Visibility of 0ft. 1030 No Significant change EPWA 070530Z 14004KT 9000 MIFG NSC 04/04 Q1030 NOSIG
MVFR 5°C / 5°C 150º 4kt 7000m shallow Fog Vertical Visibility of 0ft. 1030 No Significant change EPWA 070500Z 15004KT 7000 MIFG NSC 05/05 Q1030 NOSIG
MVFR 4°C / 4°C 150º 4kt 7000m shallow Fog Vertical Visibility of 0ft. 1030 Temporary: Visibility 1500. Mist . EPWA 070430Z 15004KT 7000 MIFG NSC 04/04 Q1030 TEMPO 1500 BR
MVFR 5°C / 5°C 140º 5kt 8000m shallow Fog Vertical Visibility of 0ft. 1030 Temporary: Visibility 3000. Mist . EPWA 070400Z 14005KT 8000 MIFG NSC 05/05 Q1030 TEMPO 3000 BR
MVFR 4°C / 4°C 140º 4kt 6000m shallow Fog Vertical Visibility of 0ft. 1030 Temporary: Visibility 3000. Mist . EPWA 070330Z 14004KT 6000 MIFG FEW003 04/04 Q1030 TEMPO 3000 BR
MVFR 4°C / 4°C 130º 2kt 8000m. Runway 33: Visual range is 1300m and increasing. patches Fog Vertical Visibility of 0ft. 1030 Temporary: Visibility 1300. Mist . EPWA 070300Z 13002KT 8000 0650W R33/1300U BCFG NSC 04/04 Q1030 TEMPO 1300 BR
IFR 4°C / 4°C 150º 2kt 2500m. Runway 33: Visual range is 1400m and decreasing. patches Fog Mist Vertical Visibility of 0ft. 1030 Temporary: Visibility 1300. Mist . EPWA 070230Z 15002KT 2500 0400W R33/1400D BCFG BR FEW004 04/04 Q1030 TEMPO 1300 BR
IFR 5°C / 5°C variable 1kt 2500m. Runway 33: Visual range is 600m and decreasing. patches Fog Mist Vertical Visibility of 0ft. 1030 Temporary: Visibility 1300. Mist . EPWA 070200Z VRB01KT 2500 0450W R33/0600D BCFG BR NSC 05/05 Q1030 TEMPO 1300 BR
MVFR 5°C / 5°C variable 0kt 7000m. Runway 33: Visual range is 800m and decreasing. patches Fog Vertical Visibility of 0ft. 1030 Temporary: Visibility 2000. Mist . EPWA 070130Z 00000KT 7000 0500W R33/0800D BCFG NSC 05/05 Q1030 TEMPO 2000 BR
MVFR 5°C / 5°C 150º 2kt 7000m shallow Fog Vertical Visibility of 0ft. 1031 No Significant change EPWA 070100Z 15002KT 7000 MIFG NSC 05/05 Q1031 NOSIG
MVFR 5°C / 5°C 140º 1kt 7000m shallow Fog Vertical Visibility of 0ft. 1031 Temporary: Visibility 1500. Mist . EPWA 070030Z 14001KT 7000 MIFG NSC 05/05 Q1031 TEMPO 1500 BR

VFR

18°C / 8°C

[Više]
Vetar 190º variable 140º to 230º 8kt
Vidljivost >10km
Prognoza -
Oblaci Few Clouds 4600ft
Pritisak 1027
Promena No Significant change
Neobrađeno EPWA 071200Z 19008KT 140V230 9999 FEW046 18/08 Q1027 NOSIG

VFR

17°C / 6°C

[Više]
Vetar 200º 9kt
Vidljivost >10km
Prognoza -
Oblaci Few Clouds 4300ft
Pritisak 1028
Promena No Significant change
Neobrađeno EPWA 071130Z 20009KT 9999 FEW043 17/06 Q1028 NOSIG

VFR

18°C / 8°C

[Više]
Vetar 200º variable 170º to 240º 7kt
Vidljivost >10km
Prognoza -
Oblaci Few Clouds 4300ft
Pritisak 1028
Promena No Significant change
Neobrađeno EPWA 071100Z 20007KT 170V240 9999 FEW043 18/08 Q1028 NOSIG

VFR

17°C / 7°C

[Više]
Vetar 200º variable 160º to 230º 8kt
Vidljivost >10km
Prognoza -
Oblaci Few Clouds 4000ft
Pritisak 1029
Promena No Significant change
Neobrađeno EPWA 071030Z 20008KT 160V230 9999 FEW040 17/07 Q1029 NOSIG

VFR

17°C / 8°C

[Više]
Vetar 180º variable 150º to 210º 8kt
Vidljivost >10km
Prognoza -
Oblaci Few Clouds 3600ft
Pritisak 1029
Promena No Significant change
Neobrađeno EPWA 071000Z 18008KT 150V210 9999 FEW036 17/08 Q1029 NOSIG

VFR

16°C / 8°C

[Više]
Vetar 170º variable 140º to 210º 8kt
Vidljivost >10km
Prognoza -
Oblaci Few Clouds 3300ft
Pritisak 1029
Promena No Significant change
Neobrađeno EPWA 070930Z 17008KT 140V210 9999 FEW033 16/08 Q1029 NOSIG

VFR

16°C / 8°C

[Više]
Vetar 170º variable 150º to 210º 6kt
Vidljivost >10km
Prognoza -
Oblaci Clouds and Visibility OK
Pritisak 1030
Promena No Significant change
Neobrađeno EPWA 070900Z 17006KT 150V210 CAVOK 16/08 Q1030 NOSIG

VFR

15°C / 9°C

[Više]
Vetar 170º variable 120º to 210º 5kt
Vidljivost >10km
Prognoza -
Oblaci Clouds and Visibility OK
Pritisak 1030
Promena No Significant change
Neobrađeno EPWA 070830Z 17005KT 120V210 CAVOK 15/09 Q1030 NOSIG

VFR

13°C / 10°C

[Više]
Vetar 150º 4kt
Vidljivost >10km
Prognoza -
Oblaci Clouds and Visibility OK
Pritisak 1030
Promena No Significant change
Neobrađeno EPWA 070800Z 15004KT CAVOK 13/10 Q1030 NOSIG

VFR

11°C / 11°C

[Više]
Vetar 140º 4kt
Vidljivost >10km
Prognoza -
Oblaci Clouds and Visibility OK
Pritisak 1030
Promena No Significant change
Neobrađeno EPWA 070730Z 14004KT CAVOK 11/11 Q1030 NOSIG

VFR

9°C / 7°C

[Više]
Vetar 130º 4kt
Vidljivost >10km
Prognoza -
Oblaci Clouds and Visibility OK
Pritisak 1030
Promena No Significant change
Neobrađeno EPWA 070700Z 13004KT CAVOK 09/07 Q1030 NOSIG

VFR

7°C / 7°C

[Više]
Vetar 140º 5kt
Vidljivost >10km
Prognoza -
Oblaci Clouds and Visibility OK
Pritisak 1030
Promena No Significant change
Neobrađeno EPWA 070630Z 14005KT CAVOK 07/07 Q1030 NOSIG

VFR

5°C / 5°C

[Više]
Vetar 140º 5kt
Vidljivost >10km
Prognoza -
Oblaci Clouds and Visibility OK
Pritisak 1030
Promena No Significant change
Neobrađeno EPWA 070600Z 14005KT CAVOK 05/05 Q1030 NOSIG

VFR

4°C / 4°C

[Više]
Vetar 140º 4kt
Vidljivost 9000m
Prognoza shallow Fog
Oblaci Vertical Visibility of 0ft.
Pritisak 1030
Promena No Significant change
Neobrađeno EPWA 070530Z 14004KT 9000 MIFG NSC 04/04 Q1030 NOSIG

MVFR

5°C / 5°C

[Više]
Vetar 150º 4kt
Vidljivost 7000m
Prognoza shallow Fog
Oblaci Vertical Visibility of 0ft.
Pritisak 1030
Promena No Significant change
Neobrađeno EPWA 070500Z 15004KT 7000 MIFG NSC 05/05 Q1030 NOSIG

MVFR

4°C / 4°C

[Više]
Vetar 150º 4kt
Vidljivost 7000m
Prognoza shallow Fog
Oblaci Vertical Visibility of 0ft.
Pritisak 1030
Promena Temporary: Visibility 1500. Mist .
Neobrađeno EPWA 070430Z 15004KT 7000 MIFG NSC 04/04 Q1030 TEMPO 1500 BR

MVFR

5°C / 5°C

[Više]
Vetar 140º 5kt
Vidljivost 8000m
Prognoza shallow Fog
Oblaci Vertical Visibility of 0ft.
Pritisak 1030
Promena Temporary: Visibility 3000. Mist .
Neobrađeno EPWA 070400Z 14005KT 8000 MIFG NSC 05/05 Q1030 TEMPO 3000 BR

MVFR

4°C / 4°C

[Više]
Vetar 140º 4kt
Vidljivost 6000m
Prognoza shallow Fog
Oblaci Vertical Visibility of 0ft.
Pritisak 1030
Promena Temporary: Visibility 3000. Mist .
Neobrađeno EPWA 070330Z 14004KT 6000 MIFG FEW003 04/04 Q1030 TEMPO 3000 BR

MVFR

4°C / 4°C

[Više]
Vetar 130º 2kt
Vidljivost 8000m. Runway 33: Visual range is 1300m and increasing.
Prognoza patches Fog
Oblaci Vertical Visibility of 0ft.
Pritisak 1030
Promena Temporary: Visibility 1300. Mist .
Neobrađeno EPWA 070300Z 13002KT 8000 0650W R33/1300U BCFG NSC 04/04 Q1030 TEMPO 1300 BR

IFR

4°C / 4°C

[Više]
Vetar 150º 2kt
Vidljivost 2500m. Runway 33: Visual range is 1400m and decreasing.
Prognoza patches Fog Mist
Oblaci Vertical Visibility of 0ft.
Pritisak 1030
Promena Temporary: Visibility 1300. Mist .
Neobrađeno EPWA 070230Z 15002KT 2500 0400W R33/1400D BCFG BR FEW004 04/04 Q1030 TEMPO 1300 BR

IFR

5°C / 5°C

[Više]
Vetar variable 1kt
Vidljivost 2500m. Runway 33: Visual range is 600m and decreasing.
Prognoza patches Fog Mist
Oblaci Vertical Visibility of 0ft.
Pritisak 1030
Promena Temporary: Visibility 1300. Mist .
Neobrađeno EPWA 070200Z VRB01KT 2500 0450W R33/0600D BCFG BR NSC 05/05 Q1030 TEMPO 1300 BR

MVFR

5°C / 5°C

[Više]
Vetar variable 0kt
Vidljivost 7000m. Runway 33: Visual range is 800m and decreasing.
Prognoza patches Fog
Oblaci Vertical Visibility of 0ft.
Pritisak 1030
Promena Temporary: Visibility 2000. Mist .
Neobrađeno EPWA 070130Z 00000KT 7000 0500W R33/0800D BCFG NSC 05/05 Q1030 TEMPO 2000 BR

MVFR

5°C / 5°C

[Više]
Vetar 150º 2kt
Vidljivost 7000m
Prognoza shallow Fog
Oblaci Vertical Visibility of 0ft.
Pritisak 1031
Promena No Significant change
Neobrađeno EPWA 070100Z 15002KT 7000 MIFG NSC 05/05 Q1031 NOSIG

MVFR

5°C / 5°C

[Više]
Vetar 140º 1kt
Vidljivost 7000m
Prognoza shallow Fog
Oblaci Vertical Visibility of 0ft.
Pritisak 1031
Promena Temporary: Visibility 1500. Mist .
Neobrađeno EPWA 070030Z 14001KT 7000 MIFG NSC 05/05 Q1031 TEMPO 1500 BR

TAF za 52.17°S 20.97°I (EPWA)

From till


From till Wind 180º 10kt. Visibility 10km or more. Nil Significant Cloud.
Temporarly from till Visibility 4000m. Mist .
With 40% probability, Temporarly from till Visibility 2000m. Mist . Broken Clouds 200ft.
Becoming from till Wind 240º 10kt. Visibility 10km or more. Nil Significant Cloud.

Neobrađeno: TAF EPWA 071130Z 0712/0812 18010KT CAVOK TEMPO 0721/0806 4000 BR PROB40 TEMPO 0800/0806 2000 BR BKN002 BECMG 0808/0811 24010KT

Radar i padavine kratka prognoza za 52.17°S 20.97°I

Rominjati
Lak
Umjereno
Teška
Vrlo teško
Zdravo

Marker lokacije postavljen je na 52.17°S 20.97°I. Ova animacija prikazuje radar padavina za poslednji sat, kao i 1h prognozu. Kiša ili slab snijeg mogu biti nevidljivi za radar. Intenzitet padavina je označen bojom, u rasponu od svetloplave do narandžaste.

Trenutni satelitski snimci i slike kiše za 52.17°S 20.97°I

Marker lokacije postavljen je na 52.17°S 20.97°I. [Više]

Satelitski snimci u realnom vremenu kombinuju vidljivu svetlost tokom dana sa infracrvenim zračenjem tokom noći. Noću slika nije tamna jer infracrveno zračenje može otkriti temperaturne razlike. Nažalost, niski oblaci i magla teško se mogu razlikovati od temperature zemlje tako da mogu biti skoro nevidljivi tokom noći. Meteosat satelitski snimci za Evropu se ažuriraju u realnom vremenu na svakih 5 minuta. Slnimci GOES-16/GOES-17 (Severna i Južna Amerika) and Himawari (Azia) ažuriraju se na svakih 10 minuta.

Падавине се процењују помоћу радара и сателита. Процене падавина са сателита су мање тачне ноћу него током дана. Narandžasti preseci obeležavaju mesta gde je munja otkrivena (preko Evropa).

Autorsko pravo 2022 EUMETSAT / meteoblue. Podaci za munje obezbeđeni od nowcast.

Nazad na vrh